sensor_id;sensor_type;location;lat;lon;timestamp;pressure;altitude;pressure_sealevel;temperature;humidity
43820;BME280;67762;52.476;6.046;2023-02-12T00:01:33;103771.63;;;5.93;82.27
43820;BME280;67762;52.476;6.046;2023-02-12T00:03:59;103774.28;;;5.93;81.88
43820;BME280;67762;52.476;6.046;2023-02-12T00:06:25;103766.53;;;5.88;82.43
43820;BME280;67762;52.476;6.046;2023-02-12T00:08:52;103772.72;;;5.87;81.93
43820;BME280;67762;52.476;6.046;2023-02-12T00:11:24;103773.66;;;5.86;82.19
43820;BME280;67762;52.476;6.046;2023-02-12T00:13:50;103773.72;;;5.83;82.46
43820;BME280;67762;52.476;6.046;2023-02-12T00:16:18;103777.44;;;5.79;82.31
43820;BME280;67762;52.476;6.046;2023-02-12T00:18:45;103779.31;;;5.77;82.22
43820;BME280;67762;52.476;6.046;2023-02-12T00:21:11;103783.09;;;5.70;82.07
43820;BME280;67762;52.476;6.046;2023-02-12T00:23:39;103785.94;;;5.66;82.33
43820;BME280;67762;52.476;6.046;2023-02-12T00:26:07;103784.28;;;5.63;82.35
43820;BME280;67762;52.476;6.046;2023-02-12T00:28:33;103785.31;;;5.59;82.60
43820;BME280;67762;52.476;6.046;2023-02-12T00:31:04;103773.13;;;5.55;82.35
43820;BME280;67762;52.476;6.046;2023-02-12T00:33:29;103783.88;;;5.51;82.73
43820;BME280;67762;52.476;6.046;2023-02-12T00:35:56;103782.41;;;5.44;82.55
43820;BME280;67762;52.476;6.046;2023-02-12T00:38:22;103782.56;;;5.39;82.51
43820;BME280;67762;52.476;6.046;2023-02-12T00:40:47;103788.13;;;5.33;82.64
43820;BME280;67762;52.476;6.046;2023-02-12T00:43:13;103790.16;;;5.25;82.57
43820;BME280;67762;52.476;6.046;2023-02-12T00:45:39;103789.59;;;5.17;82.50
43820;BME280;67762;52.476;6.046;2023-02-12T00:48:04;103783.72;;;5.09;82.45
43820;BME280;67762;52.476;6.046;2023-02-12T00:50:30;103794.44;;;5.06;82.90
43820;BME280;67762;52.476;6.046;2023-02-12T00:52:55;103789.25;;;5.03;82.68
43820;BME280;67762;52.476;6.046;2023-02-12T00:55:22;103780.72;;;4.95;82.88
43820;BME280;67762;52.476;6.046;2023-02-12T00:57:47;103791.50;;;4.90;82.85
43820;BME280;67762;52.476;6.046;2023-02-12T01:00:14;103779.44;;;4.82;82.94
43820;BME280;67762;52.476;6.046;2023-02-12T01:02:40;103782.41;;;4.72;82.58
43820;BME280;67762;52.476;6.046;2023-02-12T01:05:06;103784.47;;;4.64;82.92
43820;BME280;67762;52.476;6.046;2023-02-12T01:07:32;103794.41;;;4.58;83.02
43820;BME280;67762;52.476;6.046;2023-02-12T01:09:57;103788.25;;;4.57;82.66
43820;BME280;67762;52.476;6.046;2023-02-12T01:12:23;103789.06;;;4.59;82.81
43820;BME280;67762;52.476;6.046;2023-02-12T01:14:48;103786.53;;;4.56;83.02
43820;BME280;67762;52.476;6.046;2023-02-12T01:17:14;103784.84;;;4.54;82.58
43820;BME280;67762;52.476;6.046;2023-02-12T01:19:43;103792.09;;;4.49;82.82
43820;BME280;67762;52.476;6.046;2023-02-12T01:22:08;103794.94;;;4.43;82.77
43820;BME280;67762;52.476;6.046;2023-02-12T01:24:34;103789.91;;;4.35;82.94
43820;BME280;67762;52.476;6.046;2023-02-12T01:27:00;103792.06;;;4.24;83.02
43820;BME280;67762;52.476;6.046;2023-02-12T01:29:27;103787.94;;;4.16;82.83
43820;BME280;67762;52.476;6.046;2023-02-12T01:31:52;103792.56;;;4.09;83.23
43820;BME280;67762;52.476;6.046;2023-02-12T01:34:18;103789.38;;;3.99;83.46
43820;BME280;67762;52.476;6.046;2023-02-12T01:36:43;103790.47;;;3.92;82.71
43820;BME280;67762;52.476;6.046;2023-02-12T01:39:10;103785.06;;;3.95;83.53
43820;BME280;67762;52.476;6.046;2023-02-12T01:41:40;103783.91;;;4.04;83.63
43820;BME280;67762;52.476;6.046;2023-02-12T01:44:18;103785.75;;;4.02;83.22
43820;BME280;67762;52.476;6.046;2023-02-12T01:46:47;103786.94;;;3.92;83.42
43820;BME280;67762;52.476;6.046;2023-02-12T01:49:23;103780.31;;;3.80;83.10
43820;BME280;67762;52.476;6.046;2023-02-12T01:51:57;103793.88;;;3.68;83.54
43820;BME280;67762;52.476;6.046;2023-02-12T01:54:24;103796.88;;;3.58;83.21
43820;BME280;67762;52.476;6.046;2023-02-12T01:56:51;103801.63;;;3.45;83.46
43820;BME280;67762;52.476;6.046;2023-02-12T01:59:17;103800.13;;;3.36;83.18
43820;BME280;67762;52.476;6.046;2023-02-12T02:01:44;103792.44;;;3.29;83.19
43820;BME280;67762;52.476;6.046;2023-02-12T02:04:14;103787.06;;;3.32;82.89
43820;BME280;67762;52.476;6.046;2023-02-12T02:07:02;103780.91;;;3.33;83.14
43820;BME280;67762;52.476;6.046;2023-02-12T02:09:32;103784.50;;;3.30;83.13
43820;BME280;67762;52.476;6.046;2023-02-12T02:12:00;103786.22;;;3.31;82.89
43820;BME280;67762;52.476;6.046;2023-02-12T02:14:46;103782.13;;;3.21;83.17
43820;BME280;67762;52.476;6.046;2023-02-12T02:17:33;103780.53;;;3.16;83.31
43820;BME280;67762;52.476;6.046;2023-02-12T02:20:14;103773.59;;;3.12;83.49
43820;BME280;67762;52.476;6.046;2023-02-12T02:22:53;103776.97;;;3.17;83.10
43820;BME280;67762;52.476;6.046;2023-02-12T02:31:04;103775.81;;;3.25;83.35
43820;BME280;67762;52.476;6.046;2023-02-12T02:33:54;103779.97;;;3.34;83.73
43820;BME280;67762;52.476;6.046;2023-02-12T02:36:44;103776.28;;;3.39;83.78
43820;BME280;67762;52.476;6.046;2023-02-12T02:41:48;103776.19;;;3.42;83.81
43820;BME280;67762;52.476;6.046;2023-02-12T02:44:22;103770.00;;;3.43;83.73
43820;BME280;67762;52.476;6.046;2023-02-12T02:46:50;103762.19;;;3.40;83.77
43820;BME280;67762;52.476;6.046;2023-02-12T02:49:32;103763.25;;;3.33;83.87
43820;BME280;67762;52.476;6.046;2023-02-12T02:52:05;103759.63;;;3.37;83.56
43820;BME280;67762;52.476;6.046;2023-02-12T02:54:35;103760.41;;;3.41;83.22
43820;BME280;67762;52.476;6.046;2023-02-12T02:57:10;103762.22;;;3.39;83.41
43820;BME280;67762;52.476;6.046;2023-02-12T02:59:42;103759.63;;;3.37;83.28
43820;BME280;67762;52.476;6.046;2023-02-12T03:02:17;103763.22;;;3.35;83.65
43820;BME280;67762;52.476;6.046;2023-02-12T03:04:49;103760.69;;;3.32;84.02
43820;BME280;67762;52.476;6.046;2023-02-12T03:07:34;103766.75;;;3.35;83.31
43820;BME280;67762;52.476;6.046;2023-02-12T03:10:15;103757.06;;;3.36;84.12
43820;BME280;67762;52.476;6.046;2023-02-12T03:13:01;103762.28;;;3.37;84.16
43820;BME280;67762;52.476;6.046;2023-02-12T03:18:08;103748.97;;;3.40;83.70
43820;BME280;67762;52.476;6.046;2023-02-12T03:20:43;103750.03;;;3.35;84.12
43820;BME280;67762;52.476;6.046;2023-02-12T03:23:22;103744.75;;;3.35;84.13
43820;BME280;67762;52.476;6.046;2023-02-12T03:25:56;103755.41;;;3.32;84.28
43820;BME280;67762;52.476;6.046;2023-02-12T03:28:33;103764.22;;;3.31;83.84
43820;BME280;67762;52.476;6.046;2023-02-12T03:31:19;103751.25;;;3.23;83.98
43820;BME280;67762;52.476;6.046;2023-02-12T03:42:15;103756.69;;;3.19;83.65
43820;BME280;67762;52.476;6.046;2023-02-12T03:47:51;103758.19;;;3.27;84.28
43820;BME280;67762;52.476;6.046;2023-02-12T03:52:57;103768.94;;;3.21;84.34
43820;BME280;67762;52.476;6.046;2023-02-12T03:55:23;103768.13;;;3.19;84.31
43820;BME280;67762;52.476;6.046;2023-02-12T03:57:59;103768.22;;;3.15;84.04
43820;BME280;67762;52.476;6.046;2023-02-12T04:00:26;103768.13;;;3.19;84.16
43820;BME280;67762;52.476;6.046;2023-02-12T04:02:52;103774.13;;;3.24;84.03
43820;BME280;67762;52.476;6.046;2023-02-12T04:05:24;103773.16;;;3.27;84.70
43820;BME280;67762;52.476;6.046;2023-02-12T04:07:50;103770.44;;;3.30;83.89
43820;BME280;67762;52.476;6.046;2023-02-12T04:10:17;103774.66;;;3.35;84.43
43820;BME280;67762;52.476;6.046;2023-02-12T04:12:55;103779.09;;;3.33;83.97
43820;BME280;67762;52.476;6.046;2023-02-12T04:18:48;103785.03;;;3.41;84.01
43820;BME280;67762;52.476;6.046;2023-02-12T04:24:21;103796.00;;;3.57;84.63
43820;BME280;67762;52.476;6.046;2023-02-12T04:27:01;103793.97;;;3.65;84.78
43820;BME280;67762;52.476;6.046;2023-02-12T04:32:15;103796.19;;;3.79;84.88
43820;BME280;67762;52.476;6.046;2023-02-12T04:35:15;103796.69;;;3.91;84.27
43820;BME280;67762;52.476;6.046;2023-02-12T04:37:48;103798.91;;;4.03;84.72
43820;BME280;67762;52.476;6.046;2023-02-12T04:40:17;103802.06;;;4.14;84.97
43820;BME280;67762;52.476;6.046;2023-02-12T04:42:45;103809.03;;;4.17;84.72
43820;BME280;67762;52.476;6.046;2023-02-12T04:45:13;103807.16;;;4.21;84.57
43820;BME280;67762;52.476;6.046;2023-02-12T04:47:40;103812.38;;;4.22;85.01
43820;BME280;67762;52.476;6.046;2023-02-12T04:50:06;103806.00;;;4.28;84.82
43820;BME280;67762;52.476;6.046;2023-02-12T04:52:32;103806.75;;;4.33;84.41
43820;BME280;67762;52.476;6.046;2023-02-12T04:54:57;103811.00;;;4.37;84.70
43820;BME280;67762;52.476;6.046;2023-02-12T04:57:23;103805.59;;;4.41;84.73
43820;BME280;67762;52.476;6.046;2023-02-12T04:59:48;103800.13;;;4.46;85.04
43820;BME280;67762;52.476;6.046;2023-02-12T05:02:14;103803.53;;;4.49;84.35
43820;BME280;67762;52.476;6.046;2023-02-12T05:04:40;103811.28;;;4.54;84.28
43820;BME280;67762;52.476;6.046;2023-02-12T05:07:05;103797.06;;;4.58;84.97
43820;BME280;67762;52.476;6.046;2023-02-12T05:09:31;103799.53;;;4.62;84.57
43820;BME280;67762;52.476;6.046;2023-02-12T05:11:56;103813.44;;;4.69;84.74
43820;BME280;67762;52.476;6.046;2023-02-12T05:14:25;103815.09;;;4.71;84.60
43820;BME280;67762;52.476;6.046;2023-02-12T05:16:50;103819.31;;;4.77;84.73
43820;BME280;67762;52.476;6.046;2023-02-12T05:19:16;103813.84;;;4.82;84.80
43820;BME280;67762;52.476;6.046;2023-02-12T05:21:42;103821.56;;;4.88;84.55
43820;BME280;67762;52.476;6.046;2023-02-12T05:24:08;103818.75;;;4.92;85.24
43820;BME280;67762;52.476;6.046;2023-02-12T05:26:34;103811.69;;;4.93;85.11
43820;BME280;67762;52.476;6.046;2023-02-12T05:29:00;103817.66;;;4.98;85.03
43820;BME280;67762;52.476;6.046;2023-02-12T05:31:25;103817.38;;;5.05;84.77
43820;BME280;67762;52.476;6.046;2023-02-12T05:33:51;103825.09;;;5.11;84.70
43820;BME280;67762;52.476;6.046;2023-02-12T05:36:19;103824.19;;;5.12;84.75
43820;BME280;67762;52.476;6.046;2023-02-12T05:38:46;103818.72;;;5.17;85.00
43820;BME280;67762;52.476;6.046;2023-02-12T05:41:23;103811.53;;;5.20;85.01
43820;BME280;67762;52.476;6.046;2023-02-12T05:43:49;103815.84;;;5.23;84.74
43820;BME280;67762;52.476;6.046;2023-02-12T05:46:15;103820.16;;;5.25;85.04
43820;BME280;67762;52.476;6.046;2023-02-12T05:48:41;103815.75;;;5.26;85.10
43820;BME280;67762;52.476;6.046;2023-02-12T05:51:19;103822.66;;;5.30;85.15
43820;BME280;67762;52.476;6.046;2023-02-12T05:53:46;103828.69;;;5.33;85.01
43820;BME280;67762;52.476;6.046;2023-02-12T05:56:24;103819.75;;;5.36;84.99
43820;BME280;67762;52.476;6.046;2023-02-12T05:58:56;103827.66;;;5.38;85.07
43820;BME280;67762;52.476;6.046;2023-02-12T06:01:29;103823.16;;;5.40;84.99
43820;BME280;67762;52.476;6.046;2023-02-12T06:03:57;103829.09;;;5.46;84.83
43820;BME280;67762;52.476;6.046;2023-02-12T06:06:27;103833.41;;;5.49;84.99
43820;BME280;67762;52.476;6.046;2023-02-12T06:08:54;103822.63;;;5.53;84.85
43820;BME280;67762;52.476;6.046;2023-02-12T06:11:20;103835.72;;;5.58;85.07
43820;BME280;67762;52.476;6.046;2023-02-12T06:13:46;103836.44;;;5.61;85.11
43820;BME280;67762;52.476;6.046;2023-02-12T06:16:20;103826.72;;;5.62;85.17
43820;BME280;67762;52.476;6.046;2023-02-12T06:18:47;103838.06;;;5.65;85.19
43820;BME280;67762;52.476;6.046;2023-02-12T06:21:14;103833.56;;;5.67;85.16
43820;BME280;67762;52.476;6.046;2023-02-12T06:23:40;103835.22;;;5.70;85.29
43820;BME280;67762;52.476;6.046;2023-02-12T06:26:06;103832.53;;;5.71;85.23
43820;BME280;67762;52.476;6.046;2023-02-12T06:28:31;103836.84;;;5.74;85.26
43820;BME280;67762;52.476;6.046;2023-02-12T06:30:57;103837.72;;;5.74;85.44
43820;BME280;67762;52.476;6.046;2023-02-12T06:33:23;103826.19;;;5.75;85.23
43820;BME280;67762;52.476;6.046;2023-02-12T06:35:52;103826.94;;;5.79;85.32
43820;BME280;67762;52.476;6.046;2023-02-12T06:38:17;103822.50;;;5.79;84.99
43820;BME280;67762;52.476;6.046;2023-02-12T06:40:43;103829.50;;;5.80;85.45
43820;BME280;67762;52.476;6.046;2023-02-12T06:43:09;103834.69;;;5.83;85.34
43820;BME280;67762;52.476;6.046;2023-02-12T06:45:34;103836.44;;;5.84;85.45
43820;BME280;67762;52.476;6.046;2023-02-12T06:48:00;103839.84;;;5.88;85.37
43820;BME280;67762;52.476;6.046;2023-02-12T06:50:26;103835.34;;;5.90;85.53
43820;BME280;67762;52.476;6.046;2023-02-12T06:52:52;103834.38;;;5.93;85.58
43820;BME280;67762;52.476;6.046;2023-02-12T06:55:17;103831.66;;;5.94;85.54
43820;BME280;67762;52.476;6.046;2023-02-12T06:57:43;103836.97;;;5.94;85.24
43820;BME280;67762;52.476;6.046;2023-02-12T07:00:10;103840.34;;;5.98;85.35
43820;BME280;67762;52.476;6.046;2023-02-12T07:02:36;103845.53;;;6.01;85.15
43820;BME280;67762;52.476;6.046;2023-02-12T07:05:01;103845.59;;;5.99;85.63
43820;BME280;67762;52.476;6.046;2023-02-12T07:07:27;103848.97;;;6.03;85.29
43820;BME280;67762;52.476;6.046;2023-02-12T07:09:52;103849.91;;;6.02;85.50
43820;BME280;67762;52.476;6.046;2023-02-12T07:12:18;103852.44;;;6.05;85.34
43820;BME280;67762;52.476;6.046;2023-02-12T07:14:43;103861.19;;;6.07;85.64
43820;BME280;67762;52.476;6.046;2023-02-12T07:17:09;103855.75;;;6.10;85.68
43820;BME280;67762;52.476;6.046;2023-02-12T07:19:35;103859.88;;;6.17;85.69
43820;BME280;67762;52.476;6.046;2023-02-12T07:22:01;103860.63;;;6.20;85.73
43820;BME280;67762;52.476;6.046;2023-02-12T07:24:27;103858.84;;;6.21;85.65
43820;BME280;67762;52.476;6.046;2023-02-12T07:26:53;103868.53;;;6.22;85.71
43820;BME280;67762;52.476;6.046;2023-02-12T07:29:18;103873.75;;;6.23;85.57
43820;BME280;67762;52.476;6.046;2023-02-12T07:31:44;103868.38;;;6.25;85.43
43820;BME280;67762;52.476;6.046;2023-02-12T07:34:11;103871.91;;;6.25;85.53
43820;BME280;67762;52.476;6.046;2023-02-12T07:36:36;103869.25;;;6.25;85.02
43820;BME280;67762;52.476;6.046;2023-02-12T07:39:03;103875.44;;;6.26;85.36
43820;BME280;67762;52.476;6.046;2023-02-12T07:41:33;103878.94;;;6.26;85.49
43820;BME280;67762;52.476;6.046;2023-02-12T07:44:05;103881.47;;;6.29;85.29
43820;BME280;67762;52.476;6.046;2023-02-12T07:46:34;103887.47;;;6.34;85.57
43820;BME280;67762;52.476;6.046;2023-02-12T07:49:05;103885.56;;;6.38;85.57
43820;BME280;67762;52.476;6.046;2023-02-12T07:51:43;103888.88;;;6.43;85.74
43820;BME280;67762;52.476;6.046;2023-02-12T07:54:20;103890.44;;;6.47;85.39
43820;BME280;67762;52.476;6.046;2023-02-12T07:56:47;103894.81;;;6.50;85.86
43820;BME280;67762;52.476;6.046;2023-02-12T07:59:17;103899.03;;;6.54;85.68
43820;BME280;67762;52.476;6.046;2023-02-12T08:01:49;103898.91;;;6.57;85.65
43820;BME280;67762;52.476;6.046;2023-02-12T08:04:21;103910.28;;;6.60;85.60
43820;BME280;67762;52.476;6.046;2023-02-12T08:06:49;103904.75;;;6.65;85.29
43820;BME280;67762;52.476;6.046;2023-02-12T08:09:21;103920.47;;;6.69;85.12
43820;BME280;67762;52.476;6.046;2023-02-12T08:11:52;103915.91;;;6.73;85.72
43820;BME280;67762;52.476;6.046;2023-02-12T08:14:25;103913.94;;;6.78;85.37
43820;BME280;67762;52.476;6.046;2023-02-12T08:16:51;103921.75;;;6.81;85.35
43820;BME280;67762;52.476;6.046;2023-02-12T08:19:18;103916.41;;;6.82;85.39
43820;BME280;67762;52.476;6.046;2023-02-12T08:21:44;103926.91;;;6.85;85.64
43820;BME280;67762;52.476;6.046;2023-02-12T08:24:11;103925.91;;;6.88;84.94
43820;BME280;67762;52.476;6.046;2023-02-12T08:26:38;103921.25;;;6.93;85.24
43820;BME280;67762;52.476;6.046;2023-02-12T08:29:10;103920.19;;;6.97;85.09
43820;BME280;67762;52.476;6.046;2023-02-12T08:31:42;103928.88;;;7.00;84.91
43820;BME280;67762;52.476;6.046;2023-02-12T08:34:26;103922.56;;;7.03;85.43
43820;BME280;67762;52.476;6.046;2023-02-12T08:36:54;103940.16;;;7.05;84.93
43820;BME280;67762;52.476;6.046;2023-02-12T08:39:27;103935.59;;;7.09;85.51
43820;BME280;67762;52.476;6.046;2023-02-12T08:41:55;103941.66;;;7.13;85.44
43820;BME280;67762;52.476;6.046;2023-02-12T08:44:22;103936.19;;;7.16;85.55
43820;BME280;67762;52.476;6.046;2023-02-12T08:46:50;103934.34;;;7.18;85.38
43820;BME280;67762;52.476;6.046;2023-02-12T08:49:20;103938.66;;;7.20;85.48
43820;BME280;67762;52.476;6.046;2023-02-12T08:51:49;103944.63;;;7.25;85.29
43820;BME280;67762;52.476;6.046;2023-02-12T08:54:24;103950.59;;;7.30;85.46
43820;BME280;67762;52.476;6.046;2023-02-12T08:56:56;103953.94;;;7.35;84.55
43820;BME280;67762;52.476;6.046;2023-02-12T08:59:35;103948.41;;;7.40;84.86
43820;BME280;67762;52.476;6.046;2023-02-12T09:02:32;103958.69;;;7.47;84.25
43820;BME280;67762;52.476;6.046;2023-02-12T09:05:08;103957.56;;;7.53;85.13
43820;BME280;67762;52.476;6.046;2023-02-12T09:07:41;103961.69;;;7.60;84.42
43820;BME280;67762;52.476;6.046;2023-02-12T09:10:11;103961.47;;;7.64;84.47
43820;BME280;67762;52.476;6.046;2023-02-12T09:12:37;103969.06;;;7.72;84.92
43820;BME280;67762;52.476;6.046;2023-02-12T09:15:04;103969.66;;;7.79;84.22
43820;BME280;67762;52.476;6.046;2023-02-12T09:17:32;103962.34;;;7.84;84.31
43820;BME280;67762;52.476;6.046;2023-02-12T09:19:58;103963.84;;;7.89;84.74
43820;BME280;67762;52.476;6.046;2023-02-12T09:22:26;103973.44;;;7.93;84.43
43820;BME280;67762;52.476;6.046;2023-02-12T09:24:52;103973.06;;;8.01;83.82
43820;BME280;67762;52.476;6.046;2023-02-12T09:27:21;103972.84;;;8.05;84.28
43820;BME280;67762;52.476;6.046;2023-02-12T09:29:48;103972.50;;;8.13;84.27
43820;BME280;67762;52.476;6.046;2023-02-12T09:32:14;103969.41;;;8.22;84.18
43820;BME280;67762;52.476;6.046;2023-02-12T09:34:42;103971.59;;;8.33;83.81
43820;BME280;67762;52.476;6.046;2023-02-12T09:37:09;103970.13;;;8.44;84.00
43820;BME280;67762;52.476;6.046;2023-02-12T09:39:36;103970.66;;;8.52;83.69
43820;BME280;67762;52.476;6.046;2023-02-12T09:42:24;103967.47;;;8.63;83.87
43820;BME280;67762;52.476;6.046;2023-02-12T09:45:22;103961.50;;;8.75;83.38
43820;BME280;67762;52.476;6.046;2023-02-12T09:50:54;103964.03;;;8.95;83.64
43820;BME280;67762;52.476;6.046;2023-02-12T09:53:24;103960.97;;;9.03;83.15
43820;BME280;67762;52.476;6.046;2023-02-12T09:55:51;103967.94;;;9.05;82.78
43820;BME280;67762;52.476;6.046;2023-02-12T10:00:48;103972.91;;;9.13;82.39
43820;BME280;67762;52.476;6.046;2023-02-12T10:03:16;103964.53;;;9.20;82.32
43820;BME280;67762;52.476;6.046;2023-02-12T10:05:53;103973.38;;;9.21;82.23
43820;BME280;67762;52.476;6.046;2023-02-12T10:19:51;103967.75;;;9.27;81.17
43820;BME280;67762;52.476;6.046;2023-02-12T10:28:06;103957.13;;;9.43;80.42
43820;BME280;67762;52.476;6.046;2023-02-12T10:33:06;103962.84;;;9.52;79.88
43820;BME280;67762;52.476;6.046;2023-02-12T10:35:35;103964.13;;;9.61;79.73
43820;BME280;67762;52.476;6.046;2023-02-12T10:38:18;103963.03;;;9.65;79.39
43820;BME280;67762;52.476;6.046;2023-02-12T10:40:48;103964.44;;;9.72;79.19
43820;BME280;67762;52.476;6.046;2023-02-12T10:43:19;103964.25;;;9.75;79.18
43820;BME280;67762;52.476;6.046;2023-02-12T10:45:45;103972.03;;;9.79;78.83
43820;BME280;67762;52.476;6.046;2023-02-12T10:48:21;103973.53;;;9.85;78.56
43820;BME280;67762;52.476;6.046;2023-02-12T10:53:39;103965.47;;;10.02;78.14
43820;BME280;67762;52.476;6.046;2023-02-12T10:58:57;103962.81;;;10.33;77.41
43820;BME280;67762;52.476;6.046;2023-02-12T11:01:32;103970.16;;;10.45;77.41
43820;BME280;67762;52.476;6.046;2023-02-12T11:04:17;103964.59;;;10.64;77.12
43820;BME280;67762;52.476;6.046;2023-02-12T11:06:58;103964.59;;;10.80;77.09
43820;BME280;67762;52.476;6.046;2023-02-12T11:12:18;103967.19;;;11.25;76.85
43820;BME280;67762;52.476;6.046;2023-02-12T11:14:49;103967.91;;;11.43;76.63
43820;BME280;67762;52.476;6.046;2023-02-12T11:17:32;103966.19;;;11.56;75.71
43820;BME280;67762;52.476;6.046;2023-02-12T11:22:57;103956.41;;;11.70;75.25
43820;BME280;67762;52.476;6.046;2023-02-12T11:25:30;103953.72;;;11.70;74.81
43820;BME280;67762;52.476;6.046;2023-02-12T11:28:17;103950.94;;;11.72;74.02
43820;BME280;67762;52.476;6.046;2023-02-12T11:31:03;103949.28;;;11.55;74.03
43820;BME280;67762;52.476;6.046;2023-02-12T11:33:42;103943.09;;;11.41;72.88
43820;BME280;67762;52.476;6.046;2023-02-12T11:36:22;103951.09;;;11.41;72.73
43820;BME280;67762;52.476;6.046;2023-02-12T11:38:54;103944.97;;;11.39;72.40
43820;BME280;67762;52.476;6.046;2023-02-12T11:43:54;103934.25;;;11.25;72.30
43820;BME280;67762;52.476;6.046;2023-02-12T11:46:23;103928.22;;;11.07;71.41
43820;BME280;67762;52.476;6.046;2023-02-12T11:48:52;103934.22;;;10.96;71.42
43820;BME280;67762;52.476;6.046;2023-02-12T11:51:28;103934.47;;;10.92;71.38
43820;BME280;67762;52.476;6.046;2023-02-12T11:53:58;103937.88;;;10.80;71.38
43820;BME280;67762;52.476;6.046;2023-02-12T11:56:40;103931.97;;;10.59;70.89
43820;BME280;67762;52.476;6.046;2023-02-12T11:59:24;103928.13;;;10.49;70.87
43820;BME280;67762;52.476;6.046;2023-02-12T12:01:54;103935.59;;;10.42;70.68
43820;BME280;67762;52.476;6.046;2023-02-12T12:04:24;103933.22;;;10.38;71.16
43820;BME280;67762;52.476;6.046;2023-02-12T12:06:59;103938.13;;;10.30;71.06
43820;BME280;67762;52.476;6.046;2023-02-12T12:09:29;103920.44;;;10.27;70.95
43820;BME280;67762;52.476;6.046;2023-02-12T12:12:36;103918.31;;;10.18;70.82
43820;BME280;67762;52.476;6.046;2023-02-12T12:21:33;103913.22;;;10.14;70.97
43820;BME280;67762;52.476;6.046;2023-02-12T12:24:16;103915.09;;;10.12;70.77
43820;BME280;67762;52.476;6.046;2023-02-12T12:26:54;103908.88;;;10.11;70.87
43820;BME280;67762;52.476;6.046;2023-02-12T12:29:45;103912.59;;;10.09;70.59
43820;BME280;67762;52.476;6.046;2023-02-12T12:32:14;103907.44;;;10.06;70.73
43820;BME280;67762;52.476;6.046;2023-02-12T12:34:42;103909.34;;;10.04;70.64
43820;BME280;67762;52.476;6.046;2023-02-12T12:43:10;103902.38;;;10.01;70.71
43820;BME280;67762;52.476;6.046;2023-02-12T12:49:16;103904.34;;;9.97;70.53
43820;BME280;67762;52.476;6.046;2023-02-12T13:02:51;103893.94;;;9.93;70.57
43820;BME280;67762;52.476;6.046;2023-02-12T13:13:21;103888.06;;;9.86;70.45
43820;BME280;67762;52.476;6.046;2023-02-12T13:22:04;103876.47;;;9.87;70.95
43820;BME280;67762;52.476;6.046;2023-02-12T13:24:34;103871.34;;;9.83;70.86
43820;BME280;67762;52.476;6.046;2023-02-12T13:27:29;103868.09;;;9.78;70.67
43820;BME280;67762;52.476;6.046;2023-02-12T13:30:04;103872.75;;;9.74;70.95
43820;BME280;67762;52.476;6.046;2023-02-12T13:33:00;103867.50;;;9.73;71.01
43820;BME280;67762;52.476;6.046;2023-02-12T13:35:28;103870.16;;;9.73;71.10
43820;BME280;67762;52.476;6.046;2023-02-12T13:37:56;103865.59;;;9.75;70.93
43820;BME280;67762;52.476;6.046;2023-02-12T13:40:27;103870.75;;;9.78;71.07
43820;BME280;67762;52.476;6.046;2023-02-12T13:43:30;103865.59;;;9.75;70.90
43820;BME280;67762;52.476;6.046;2023-02-12T13:46:05;103874.47;;;9.75;71.20
43820;BME280;67762;52.476;6.046;2023-02-12T13:48:46;103863.56;;;9.80;71.30
43820;BME280;67762;52.476;6.046;2023-02-12T13:51:33;103863.63;;;9.78;71.19
43820;BME280;67762;52.476;6.046;2023-02-12T13:57:08;103875.16;;;9.79;71.29
43820;BME280;67762;52.476;6.046;2023-02-12T13:59:38;103866.28;;;9.78;71.47
43820;BME280;67762;52.476;6.046;2023-02-12T14:02:25;103863.72;;;9.77;71.23
43820;BME280;67762;52.476;6.046;2023-02-12T14:05:18;103855.72;;;9.77;71.60
43820;BME280;67762;52.476;6.046;2023-02-12T14:07:48;103854.84;;;9.76;71.47
43820;BME280;67762;52.476;6.046;2023-02-12T14:10:24;103856.66;;;9.76;71.57
43820;BME280;67762;52.476;6.046;2023-02-12T14:13:19;103854.16;;;9.73;71.50
43820;BME280;67762;52.476;6.046;2023-02-12T14:15:52;103852.09;;;9.78;71.64
43820;BME280;67762;52.476;6.046;2023-02-12T14:18:37;103849.25;;;9.81;71.41
43820;BME280;67762;52.476;6.046;2023-02-12T14:23:39;103835.81;;;9.67;71.29
43820;BME280;67762;52.476;6.046;2023-02-12T14:26:10;103845.28;;;9.57;70.55
43820;BME280;67762;52.476;6.046;2023-02-12T14:33:51;103839.75;;;9.44;70.47
43820;BME280;67762;52.476;6.046;2023-02-12T14:36:18;103845.28;;;9.41;69.91
43820;BME280;67762;52.476;6.046;2023-02-12T14:41:25;103849.03;;;9.37;69.76
43820;BME280;67762;52.476;6.046;2023-02-12T14:46:57;103844.91;;;9.31;69.62
43820;BME280;67762;52.476;6.046;2023-02-12T14:49:30;103858.38;;;9.28;69.84
43820;BME280;67762;52.476;6.046;2023-02-12T14:52:01;103844.19;;;9.28;69.80
43820;BME280;67762;52.476;6.046;2023-02-12T14:54:35;103856.66;;;9.27;69.51
43820;BME280;67762;52.476;6.046;2023-02-12T14:57:23;103846.25;;;9.23;69.72
43820;BME280;67762;52.476;6.046;2023-02-12T14:59:51;103843.84;;;9.18;69.80
43820;BME280;67762;52.476;6.046;2023-02-12T15:02:23;103837.81;;;9.15;69.35
43820;BME280;67762;52.476;6.046;2023-02-12T15:04:52;103838.84;;;9.12;69.34
43820;BME280;67762;52.476;6.046;2023-02-12T15:07:28;103846.06;;;9.10;69.43
43820;BME280;67762;52.476;6.046;2023-02-12T15:10:10;103839.94;;;9.08;69.53
43820;BME280;67762;52.476;6.046;2023-02-12T15:12:41;103848.78;;;9.09;69.76
43820;BME280;67762;52.476;6.046;2023-02-12T15:15:32;103841.66;;;9.09;69.75
43820;BME280;67762;52.476;6.046;2023-02-12T15:18:03;103836.44;;;9.08;69.37
43820;BME280;67762;52.476;6.046;2023-02-12T15:20:58;103843.63;;;9.06;69.89
43820;BME280;67762;52.476;6.046;2023-02-12T15:25:56;103834.00;;;9.03;69.32
43820;BME280;67762;52.476;6.046;2023-02-12T15:28:29;103838.53;;;9.01;69.46
43820;BME280;67762;52.476;6.046;2023-02-12T15:30:59;103832.44;;;8.99;69.50
43820;BME280;67762;52.476;6.046;2023-02-12T15:33:30;103821.94;;;8.96;69.87
43820;BME280;67762;52.476;6.046;2023-02-12T15:35:57;103833.63;;;8.94;69.23